Time;durP1;ratioP1;P1;durP2;ratioP2;P2;SDS_P1;SDS_P2;PMS_P1;PMS_P2;Temp;Humidity;BMP_temperature;BMP_pressure;BME280_temperature;BME280_humidity;BME280_pressure;Samples;Min_cycle;Max_cycle;Signal;HPM_P1;HPM_P2
2022/05/11 00:01:42;;;;;;;26.30;14.77;;;;;;;10.48;100.00;98780.75;7397287;19;20406;-53
2022/05/11 00:04:12;;;;;;;27.50;14.53;;;;;;;10.50;100.00;98784.19;7390458;19;20427;-58
2022/05/11 00:06:42;;;;;;;27.13;16.20;;;;;;;10.50;100.00;98779.03;7396075;19;20462;-59
2022/05/11 00:09:14;;;;;;;37.27;15.67;;;;;;;10.50;100.00;98768.72;7391274;19;20397;-57
2022/05/11 00:11:44;;;;;;;32.70;16.33;;;;;;;10.49;100.00;98765.28;7398460;19;20738;-59
2022/05/11 00:14:14;;;;;;;28.33;15.10;;;;;;;10.51;100.00;98757.59;7391231;19;20433;-60
2022/05/11 00:16:47;;;;;;;26.57;15.77;;;;;;;10.55;100.00;98761.06;7400287;19;20789;-58
2022/05/11 00:19:16;;;;;;;28.10;15.67;;;;;;;10.55;100.00;98761.91;7390711;19;20423;-57
2022/05/11 00:21:46;;;;;;;23.67;14.77;;;;;;;10.51;100.00;98770.47;7398253;19;20390;-59
2022/05/11 00:24:16;;;;;;;36.60;16.27;;;;;;;10.49;100.00;98773.03;7390868;19;20422;-56
2022/05/11 00:26:45;;;;;;;28.43;15.20;;;;;;;10.51;100.00;98762.75;7395546;19;20423;-59
2022/05/11 00:29:14;;;;;;;20.70;15.10;;;;;;;10.50;100.00;98763.56;7392193;19;20486;-59
2022/05/11 00:31:47;;;;;;;22.00;14.63;;;;;;;10.59;100.00;98763.66;7397885;19;20403;-57
2022/05/11 00:34:16;;;;;;;24.20;15.13;;;;;;;10.60;100.00;98754.19;7390758;19;20408;-58
2022/05/11 00:36:46;;;;;;;23.43;15.27;;;;;;;10.52;100.00;98759.31;7395385;19;20424;-57
2022/05/11 00:39:16;;;;;;;23.87;15.87;;;;;;;10.59;100.00;98767.94;7390512;19;20417;-59
2022/05/11 00:41:46;;;;;;;25.47;15.83;;;;;;;10.44;100.00;98768.66;7397495;19;21221;-59
2022/05/11 00:44:16;;;;;;;26.80;17.00;;;;;;;10.57;100.00;98755.06;7389260;19;20419;-58
2022/05/11 00:46:58;;;;;;;27.40;16.53;;;;;;;10.72;100.00;98738.00;7392124;19;20491;-60
2022/05/11 00:49:34;;;;;;;30.13;16.73;;;;;;;10.52;100.00;98749.00;7389987;19;20417;-60
2022/05/11 00:52:08;;;;;;;20.97;15.07;;;;;;;10.59;100.00;98761.09;7394337;19;20947;-59
2022/05/11 00:54:42;;;;;;;24.30;16.03;;;;;;;10.53;100.00;98741.25;7387014;19;20761;-58
2022/05/11 00:57:16;;;;;;;23.30;15.93;;;;;;;10.51;100.00;98750.69;7395200;19;20400;-60
2022/05/11 00:59:48;;;;;;;33.40;16.33;;;;;;;10.53;100.00;98755.88;7381928;19;20972;-58
2022/05/11 01:02:21;;;;;;;23.83;16.17;;;;;;;10.64;100.00;98746.53;7395292;19;20409;-60
2022/05/11 01:04:51;;;;;;;23.00;16.60;;;;;;;10.71;100.00;98736.28;7385937;19;20451;-58
2022/05/11 01:07:21;;;;;;;28.40;18.03;;;;;;;10.77;100.00;98713.13;7393876;19;20636;-60
2022/05/11 01:09:50;;;;;;;30.07;19.40;;;;;;;10.60;100.00;98725.84;7391577;19;21247;-55
2022/05/11 01:12:22;;;;;;;31.07;18.93;;;;;;;10.52;100.00;98743.84;7394485;19;20903;-55
2022/05/11 01:14:57;;;;;;;29.57;17.80;;;;;;;10.61;100.00;98732.75;7388812;19;20470;-58
2022/05/11 01:17:29;;;;;;;24.93;17.13;;;;;;;10.58;100.00;98741.31;7394055;19;20399;-58
2022/05/11 01:19:58;;;;;;;25.87;17.00;;;;;;;10.66;100.00;98728.47;7392475;19;20752;-59
2022/05/11 01:22:32;;;;;;;26.70;18.17;;;;;;;10.53;100.00;98730.09;7393894;19;20923;-58
2022/05/11 01:25:06;;;;;;;27.97;17.50;;;;;;;10.57;100.00;98731.84;7393480;19;20488;-58
2022/05/11 01:27:39;;;;;;;33.40;19.90;;;;;;;10.53;100.00;98742.97;7388403;19;20727;-58
2022/05/11 01:30:12;;;;;;;27.70;17.77;;;;;;;10.64;100.00;98735.34;7394236;19;20461;-58
2022/05/11 01:32:43;;;;;;;31.37;19.60;;;;;;;10.53;100.00;98728.34;7386697;19;21033;-58
2022/05/11 01:35:30;;;;;;;27.87;19.60;;;;;;;10.58;100.00;98731.00;7393576;19;20741;-58
2022/05/11 01:38:24;;;;;;;29.07;18.83;;;;;;;10.65;100.00;98722.47;7386957;19;20747;-58
2022/05/11 01:40:56;;;;;;;33.07;21.27;;;;;;;10.58;100.00;98718.09;7391249;19;20753;-59
2022/05/11 01:43:33;;;;;;;36.10;21.67;;;;;;;10.58;100.00;98714.66;7389545;19;20417;-55
2022/05/11 01:46:03;;;;;;;35.33;22.60;;;;;;;10.67;100.00;98707.84;7394229;19;20544;-58
2022/05/11 01:48:33;;;;;;;28.37;19.87;;;;;;;10.65;100.00;98712.16;7388228;19;20935;-56
2022/05/11 01:51:02;;;;;;;31.67;20.43;;;;;;;10.64;100.00;98707.84;7400422;19;20927;-58
2022/05/11 01:53:32;;;;;;;33.23;19.93;;;;;;;10.78;100.00;98694.19;7389053;19;20432;-58
2022/05/11 01:56:04;;;;;;;36.23;21.83;;;;;;;10.78;100.00;98687.31;7394016;19;20406;-60
2022/05/11 01:58:34;;;;;;;33.10;20.73;;;;;;;10.82;100.00;98690.78;7390107;19;20421;-59
2022/05/11 02:01:04;;;;;;;35.67;21.70;;;;;;;10.78;100.00;98684.72;7395625;19;20726;-58
2022/05/11 02:03:34;;;;;;;30.77;20.40;;;;;;;10.74;100.00;98692.44;7388470;19;20398;-59
2022/05/11 02:08:46;;;;;;;30.20;20.73;;;;;;;10.88;100.00;98690.81;7388277;19;20423;-56
2022/05/11 02:11:18;;;;;;;33.87;21.17;;;;;;;10.94;100.00;98683.13;7396468;19;20407;-58
2022/05/11 02:13:48;;;;;;;34.37;21.27;;;;;;;10.93;100.00;98675.41;7388200;19;20492;-59
2022/05/11 02:16:18;;;;;;;33.80;22.40;;;;;;;10.78;100.00;98679.56;7393219;19;20421;-58
2022/05/11 02:18:48;;;;;;;32.93;20.73;;;;;;;10.80;100.00;98690.78;7388047;19;20975;-57
2022/05/11 02:21:17;;;;;;;35.03;21.77;;;;;;;10.80;100.00;98682.16;7395181;19;20834;-57
2022/05/11 02:23:50;;;;;;;51.27;31.70;;;;;;;10.79;100.00;98677.88;7386611;19;20408;-57
2022/05/11 02:26:23;;;;;;;89.97;51.80;;;;;;;10.86;100.00;98671.91;7392955;19;20754;-56
2022/05/11 02:28:55;;;;;;;36.30;22.57;;;;;;;10.77;100.00;98682.16;7388408;19;20427;-58
2022/05/11 02:31:24;;;;;;;41.87;21.87;;;;;;;10.82;100.00;98671.88;7394593;19;20767;-58
2022/05/11 02:33:54;;;;;;;49.53;28.93;;;;;;;10.86;100.00;98664.16;7387505;19;20490;-58
2022/05/11 02:36:23;;;;;;;63.20;32.63;;;;;;;10.84;100.00;98649.50;7390729;19;20954;-57
2022/05/11 02:38:53;;;;;;;44.80;28.70;;;;;;;10.83;100.00;98652.94;7386204;19;20428;-57
2022/05/11 02:41:26;;;;;;;47.40;27.47;;;;;;;10.84;100.00;98647.81;7394326;19;20397;-58
2022/05/11 02:43:55;;;;;;;39.47;23.90;;;;;;;10.79;100.00;98647.78;7386115;19;20746;-57
2022/05/11 02:46:24;;;;;;;43.67;27.40;;;;;;;10.78;100.00;98650.34;7391981;19;20421;-58
2022/05/11 02:48:54;;;;;;;36.07;22.40;;;;;;;10.67;100.00;98664.00;7388311;19;20767;-58
2022/05/11 02:51:24;;;;;;;38.70;23.50;;;;;;;10.65;100.00;98686.38;7394100;19;20386;-59
2022/05/11 02:53:53;;;;;;;36.50;22.93;;;;;;;10.44;100.00;98697.34;7386859;19;20426;-58
2022/05/11 02:56:25;;;;;;;36.97;23.27;;;;;;;10.59;100.00;98690.59;7391833;19;20411;-56
2022/05/11 02:58:55;;;;;;;37.57;22.73;;;;;;;10.47;100.00;98709.41;7387368;19;20438;-59
2022/05/11 03:01:24;;;;;;;34.40;22.53;;;;;;;10.61;100.00;98692.34;7395585;19;20388;-59
2022/05/11 03:03:54;;;;;;;38.10;22.07;;;;;;;10.65;100.00;98683.78;7385560;19;20428;-58
2022/05/11 03:06:23;;;;;;;32.00;21.67;;;;;;;10.75;100.00;98678.69;7391327;19;20775;-58
2022/05/11 03:08:53;;;;;;;36.97;23.60;;;;;;;10.90;100.00;98660.75;7385105;19;20438;-58
2022/05/11 03:11:25;;;;;;;39.90;25.17;;;;;;;10.90;100.00;98655.59;7393342;19;20472;-59
2022/05/11 03:13:55;;;;;;;36.67;22.90;;;;;;;10.86;100.00;98659.00;7384048;19;20956;-59
2022/05/11 03:16:28;;;;;;;40.07;23.20;;;;;;;10.92;100.00;98642.72;7391247;19;20772;-59
2022/05/11 03:19:01;;;;;;;35.10;23.60;;;;;;;10.86;100.00;98640.94;7387692;19;20443;-54
2022/05/11 03:21:31;;;;;;;32.00;21.57;;;;;;;10.91;100.00;98633.22;7393017;19;20387;-58
2022/05/11 03:24:01;;;;;;;39.00;24.77;;;;;;;10.88;100.00;98631.47;7386710;19;20412;-59
2022/05/11 03:26:34;;;;;;;38.83;22.57;;;;;;;10.88;100.00;98628.91;7391092;19;20419;-58
2022/05/11 03:29:05;;;;;;;41.07;26.17;;;;;;;10.79;100.00;98632.31;7385317;19;20434;-59
2022/05/11 03:31:35;;;;;;;34.77;21.63;;;;;;;10.80;100.00;98628.00;7392809;19;20419;-59
2022/05/11 03:36:47;;;;;;;30.30;19.33;;;;;;;10.92;100.00;98630.66;7390819;19;20755;-57
2022/05/11 03:39:17;;;;;;;39.87;23.37;;;;;;;10.98;100.00;98621.25;7386766;19;20427;-58
2022/05/11 03:41:49;;;;;;;30.23;19.20;;;;;;;11.13;100.00;98623.03;7392568;19;20474;-57
2022/05/11 03:44:19;;;;;;;31.50;19.97;;;;;;;11.18;100.00;98614.47;7384963;19;20409;-59
2022/05/11 03:46:49;;;;;;;29.60;20.33;;;;;;;11.04;100.00;98621.28;7393444;19;20425;-59
2022/05/11 03:49:18;;;;;;;31.70;20.17;;;;;;;11.00;100.00;98627.25;7389865;19;20431;-56
2022/05/11 03:51:48;;;;;;;29.87;19.30;;;;;;;10.97;100.00;98625.53;7403233;19;20393;-59
2022/05/11 03:54:17;;;;;;;30.67;20.30;;;;;;;10.99;100.00;98610.06;7391749;19;20441;-58
2022/05/11 03:56:49;;;;;;;31.77;21.93;;;;;;;10.90;100.00;98618.59;7396892;19;20488;-58
2022/05/11 03:59:19;;;;;;;29.47;20.13;;;;;;;10.89;100.00;98612.59;7393642;19;20423;-54
2022/05/11 04:01:49;;;;;;;34.20;19.80;;;;;;;10.94;100.00;98625.50;7399430;19;20391;-58
2022/05/11 04:04:19;;;;;;;31.20;21.73;;;;;;;10.91;100.00;98631.53;7391522;19;20402;-59
2022/05/11 04:06:48;;;;;;;34.23;20.07;;;;;;;10.99;100.00;98617.78;7396379;19;20422;-60
2022/05/11 04:09:18;;;;;;;37.03;21.10;;;;;;;10.92;100.00;98622.91;7390127;19;20432;-58
2022/05/11 04:11:50;;;;;;;30.83;21.53;;;;;;;10.88;100.00;98623.75;7399034;19;20381;-58
2022/05/11 04:14:19;;;;;;;34.53;22.30;;;;;;;10.85;100.00;98631.47;7389831;19;20414;-58
2022/05/11 04:16:49;;;;;;;33.90;22.90;;;;;;;10.85;100.00;98630.59;7396611;19;20433;-59
2022/05/11 04:19:19;;;;;;;37.80;23.07;;;;;;;10.79;100.00;98637.47;7393786;19;20450;-58
2022/05/11 04:21:48;;;;;;;33.23;22.97;;;;;;;10.80;100.00;98648.63;7398635;19;20451;-58
2022/05/11 04:24:18;;;;;;;38.60;23.10;;;;;;;10.83;100.00;98642.63;7391803;19;20422;-55
2022/05/11 04:26:50;;;;;;;38.37;24.37;;;;;;;10.83;100.00;98638.34;7396230;19;20780;-59
2022/05/11 04:29:20;;;;;;;40.60;23.30;;;;;;;10.79;100.00;98629.72;7386320;19;20438;-59
2022/05/11 04:31:56;;;;;;;40.40;22.73;;;;;;;10.80;100.00;98622.84;7398458;19;20792;-59
2022/05/11 04:34:26;;;;;;;30.77;21.30;;;;;;;10.84;100.00;98624.59;7387127;19;20413;-60
2022/05/11 04:36:56;;;;;;;31.43;20.60;;;;;;;10.83;100.00;98616.84;7398296;19;20477;-59
2022/05/11 04:39:25;;;;;;;37.33;21.73;;;;;;;10.86;100.00;98612.56;7390221;19;20434;-59
2022/05/11 04:41:58;;;;;;;38.77;24.27;;;;;;;10.88;100.00;98605.69;7398026;19;20393;-59
2022/05/11 04:44:28;;;;;;;31.50;23.13;;;;;;;10.93;100.00;98588.53;7390676;19;20424;-59
2022/05/11 04:47:01;;;;;;;35.90;21.43;;;;;;;10.85;100.00;98586.75;7397910;19;20408;-60
2022/05/11 04:49:31;;;;;;;26.70;19.70;;;;;;;10.86;100.00;98585.91;7391029;19;20963;-59
2022/05/11 04:52:03;;;;;;;33.97;22.00;;;;;;;10.85;100.00;98573.84;7397875;19;20410;-60
2022/05/11 04:54:32;;;;;;;27.77;20.27;;;;;;;10.93;100.00;98564.47;7391707;19;20453;-58
2022/05/11 04:57:05;;;;;;;30.70;22.30;;;;;;;10.97;100.00;98558.44;7397576;19;20401;-57
2022/05/11 04:59:35;;;;;;;37.33;22.13;;;;;;;10.98;100.00;98564.47;7389091;19;20426;-59
2022/05/11 05:02:06;;;;;;;27.33;19.93;;;;;;;10.96;100.00;98568.78;7397463;19;20390;-57
2022/05/11 05:04:36;;;;;;;31.07;20.50;;;;;;;10.94;100.00;98569.59;7388158;19;20465;-59
2022/05/11 05:07:06;;;;;;;28.20;20.03;;;;;;;11.02;100.00;98571.38;7396985;19;20385;-57
2022/05/11 05:09:36;;;;;;;29.90;19.50;;;;;;;10.99;100.00;98561.03;7388360;19;20445;-58
2022/05/11 05:12:09;;;;;;;29.87;20.33;;;;;;;11.02;100.00;98554.16;7397134;19;20397;-59
2022/05/11 05:14:39;;;;;;;29.60;18.70;;;;;;;11.01;100.00;98556.72;7392676;19;20437;-57
2022/05/11 05:17:10;;;;;;;28.97;18.80;;;;;;;10.99;100.00;98538.69;7397072;19;20409;-56
2022/05/11 05:19:40;;;;;;;28.30;19.33;;;;;;;11.05;100.00;98532.69;7368902;19;20508;-58
2022/05/11 05:22:10;;;;;;;27.60;20.57;;;;;;;11.14;100.00;98530.16;7396961;19;20378;-57
2022/05/11 05:24:41;;;;;;;31.10;19.97;;;;;;;11.17;100.00;98529.28;7389608;19;20404;-56
2022/05/11 05:27:13;;;;;;;31.30;20.30;;;;;;;11.18;100.00;98516.38;7396734;19;20391;-58
2022/05/11 05:32:26;;;;;;;29.67;19.77;;;;;;;11.15;100.00;98526.72;7396004;19;20393;-58
2022/05/11 05:34:57;;;;;;;27.30;18.10;;;;;;;11.19;100.00;98523.25;7387046;19;20424;-59
2022/05/11 05:37:27;;;;;;;25.87;18.13;;;;;;;11.31;100.00;98503.50;7396297;19;20390;-58
2022/05/11 05:39:57;;;;;;;26.07;17.60;;;;;;;11.31;100.00;98506.09;7388634;19;20440;-58
2022/05/11 05:42:30;;;;;;;25.93;17.67;;;;;;;11.31;100.00;98501.81;7395417;19;20389;-59
2022/05/11 05:44:59;;;;;;;42.03;17.83;;;;;;;11.24;100.00;98509.50;7398255;19;21090;-58
2022/05/11 05:47:29;;;;;;;38.63;24.60;;;;;;;11.51;100.00;98494.94;7395590;19;20398;-59
2022/05/11 05:49:59;;;;;;;67.00;38.07;;;;;;;11.53;100.00;98499.25;7393712;19;20428;-56
2022/05/11 05:52:30;;;;;;;26.63;16.80;;;;;;;11.43;100.00;98511.28;7395364;19;20387;-57
2022/05/11 05:55:01;;;;;;;29.27;20.37;;;;;;;11.51;100.00;98498.41;7393904;19;20438;-57
2022/05/11 05:57:33;;;;;;;24.60;18.43;;;;;;;11.64;100.00;98488.94;7395473;19;20396;-56
2022/05/11 06:00:03;;;;;;;36.50;24.20;;;;;;;11.91;100.00;98471.75;7394636;19;20438;-57
2022/05/11 06:02:33;;;;;;;28.10;18.47;;;;;;;11.75;100.00;98492.41;7394834;19;20400;-59
2022/05/11 06:05:02;;;;;;;22.80;17.70;;;;;;;11.74;100.00;98497.56;7393620;19;20429;-58
2022/05/11 06:07:34;;;;;;;27.47;17.97;;;;;;;11.68;100.00;98503.59;7394544;19;20390;-58
2022/05/11 06:10:04;;;;;;;30.23;17.37;;;;;;;12.02;100.00;98488.09;7392908;19;20423;-57
2022/05/11 06:12:36;;;;;;;27.73;19.17;;;;;;;11.96;100.00;98498.44;7387279;19;20735;-61
2022/05/11 06:15:07;;;;;;;26.30;17.70;;;;;;;11.94;100.00;98489.81;7393284;19;20425;-57
2022/05/11 06:17:38;;;;;;;34.23;22.20;;;;;;;12.02;100.00;98485.50;7388300;19;20390;-57
2022/05/11 06:20:10;;;;;;;141.10;85.87;;;;;;;12.21;100.00;98471.75;7394601;19;20399;-57
2022/05/11 06:22:41;;;;;;;141.07;83.03;;;;;;;12.51;100.00;98439.78;7388455;19;20406;-57
2022/05/11 06:25:11;;;;;;;27.90;17.63;;;;;;;12.55;100.00;98440.63;7395892;19;20531;-55
2022/05/11 06:27:43;;;;;;;37.33;25.03;;;;;;;12.27;100.00;98470.00;7368593;19;20390;-56
2022/05/11 06:30:14;;;;;;;24.07;17.60;;;;;;;12.22;100.00;98469.16;7392522;19;20408;-55
2022/05/11 06:32:44;;;;;;;39.33;25.83;;;;;;;12.22;100.00;98469.16;7387836;19;20806;-59
2022/05/11 06:35:14;;;;;;;31.67;22.60;;;;;;;12.35;100.00;98466.56;7392661;19;20955;-60
2022/05/11 06:37:44;;;;;;;25.60;17.57;;;;;;;12.29;100.00;98465.72;7388371;19;20395;-58
2022/05/11 06:40:16;;;;;;;27.17;16.30;;;;;;;12.26;100.00;98477.78;7394150;19;20464;-59
2022/05/11 06:42:48;;;;;;;27.20;16.87;;;;;;;12.27;100.00;98480.34;7386177;19;20785;-56
2022/05/11 06:45:19;;;;;;;27.03;17.37;;;;;;;12.28;100.00;98471.75;7393660;19;20510;-58
2022/05/11 06:47:54;;;;;;;22.00;15.27;;;;;;;12.19;100.00;98471.75;7387067;19;20429;-58
2022/05/11 06:50:26;;;;;;;24.90;16.63;;;;;;;12.25;100.00;98466.56;7393180;19;20393;-53
2022/05/11 06:52:56;;;;;;;24.23;15.67;;;;;;;12.29;100.00;98470.88;7386022;19;20405;-57
2022/05/11 07:00:52;;;;;;;23.00;15.53;;;;;;;12.37;100.00;98475.16;7393391;19;20385;-58
2022/05/11 07:03:22;;;;;;;22.70;15.57;;;;;;;12.47;100.00;98476.88;7385341;19;20421;-55
2022/05/11 07:05:52;;;;;;;30.47;15.17;;;;;;;12.48;100.00;98478.59;7391526;19;20946;-59
2022/05/11 07:08:21;;;;;;;20.80;15.40;;;;;;;12.45;100.00;98496.69;7386661;19;20417;-55
2022/05/11 07:13:35;;;;;;;26.60;16.70;;;;;;;12.54;100.00;98507.03;7386323;19;20941;-58
2022/05/11 07:16:05;;;;;;;24.73;16.77;;;;;;;12.67;100.00;98507.84;7392034;19;20420;-51
2022/05/11 07:18:34;;;;;;;25.40;15.77;;;;;;;12.80;100.00;98511.28;7384485;19;20430;-57
2022/05/11 07:21:05;;;;;;;21.17;13.40;;;;;;;12.81;100.00;98538.00;7394522;19;20379;-57
2022/05/11 07:23:35;;;;;;;17.50;12.70;;;;;;;12.85;100.00;98546.59;7396005;19;20475;-57
2022/05/11 07:26:07;;;;;;;23.23;13.00;;;;;;;12.87;100.00;98547.47;7398237;19;20472;-53
2022/05/11 07:28:40;;;;;;;16.27;11.67;;;;;;;12.89;100.00;98554.38;7393271;19;20418;-55
2022/05/11 07:31:10;;;;;;;23.63;14.00;;;;;;;12.95;100.00;98566.44;7399021;19;20379;-53
2022/05/11 07:33:40;;;;;;;23.77;14.47;;;;;;;12.96;100.00;98560.38;7392912;19;20419;-54
2022/05/11 07:36:09;;;;;;;19.30;10.50;;;;;;;12.90;100.00;98581.09;7398546;19;20434;-57
2022/05/11 07:38:40;;;;;;;18.43;13.07;;;;;;;12.93;100.00;98589.72;7393706;19;20394;-56
2022/05/11 07:41:10;;;;;;;17.03;11.20;;;;;;;12.90;100.00;98613.03;7402201;19;20394;-57
2022/05/11 07:43:42;;;;;;;17.70;12.27;;;;;;;12.99;100.00;98629.41;7392821;19;20425;-54
2022/05/11 07:46:12;;;;;;;16.80;11.80;;;;;;;13.04;100.00;98638.03;7398016;19;20420;-57
2022/05/11 07:48:42;;;;;;;22.50;11.70;;;;;;;13.01;100.00;98644.06;7393491;19;20412;-55
2022/05/11 07:51:11;;;;;;;18.20;11.50;;;;;;;13.05;100.00;98645.78;7398487;19;20736;-57
2022/05/11 07:53:41;;;;;;;17.47;11.83;;;;;;;13.07;100.00;98645.75;7390562;19;20414;-54
2022/05/11 08:01:38;;;;;;;17.37;10.70;;;;;;;13.09;100.00;98670.78;7398751;19;20388;-59
2022/05/11 08:04:08;;;;;;;21.50;10.90;;;;;;;13.09;100.00;98677.72;7370796;19;20391;-53
2022/05/11 08:06:37;;;;;;;20.80;10.77;;;;;;;13.10;100.00;98684.59;7395799;19;20408;-57
2022/05/11 08:09:07;;;;;;;16.53;10.53;;;;;;;13.18;100.00;98684.59;7392247;19;20415;-58
2022/05/11 08:11:37;;;;;;;18.50;10.03;;;;;;;13.17;100.00;98695.81;7397330;19;20388;-54
2022/05/11 08:14:09;;;;;;;49.13;23.83;;;;;;;13.19;100.00;98699.25;7389550;19;20453;-59
2022/05/11 08:16:38;;;;;;;26.87;15.00;;;;;;;13.20;100.00;98695.81;7400109;19;20506;-58
2022/05/11 08:19:08;;;;;;;33.13;17.33;;;;;;;13.27;100.00;98681.97;7369973;19;20417;-56
2022/05/11 08:21:37;;;;;;;27.33;16.87;;;;;;;13.27;100.00;98676.78;7402367;19;20418;-58
2022/05/11 08:24:08;;;;;;;17.27;11.27;;;;;;;13.22;100.00;98697.53;7392652;19;20418;-54
2022/05/11 08:26:37;;;;;;;20.50;12.83;;;;;;;13.37;100.00;98694.03;7396054;19;20421;-58
2022/05/11 08:29:09;;;;;;;15.67;10.50;;;;;;;13.45;100.00;98691.44;7359408;19;20425;-57
2022/05/11 08:34:21;;;;;;;18.73;10.30;;;;;;;13.56;100.00;98700.91;7353242;19;20506;-60
2022/05/11 08:36:51;;;;;;;20.70;12.93;;;;;;;13.57;100.00;98700.94;7395723;19;20436;-59
2022/05/11 08:39:20;;;;;;;59.83;30.73;;;;;;;13.67;100.00;98709.53;7363264;19;20415;-58
2022/05/11 08:41:53;;;;;;;51.33;24.77;;;;;;;13.74;100.00;98724.19;7401799;19;20398;-58
2022/05/11 08:44:31;;;;;;;29.97;18.00;;;;;;;13.83;100.00;98717.22;7367801;19;20420;-60
2022/05/11 08:47:06;;;;;;;17.70;11.30;;;;;;;13.92;100.00;98722.38;7397872;19;20387;-58
2022/05/11 08:49:47;;;;;;;14.63;9.30;;;;;;;14.02;100.00;98728.38;7361376;19;20844;-56
2022/05/11 08:52:35;;;;;;;32.33;18.10;;;;;;;14.08;100.00;98717.13;7395756;19;20729;-59
2022/05/11 08:55:11;;;;;;;58.40;33.50;;;;;;;14.28;100.00;98722.19;7396088;19;20987;-56
2022/05/11 08:57:42;;;;;;;30.90;16.07;;;;;;;14.28;100.00;98730.84;7390066;19;20383;-60
2022/05/11 09:00:17;;;;;;;37.57;20.20;;;;;;;14.31;100.00;98745.53;7397122;19;20721;-52
2022/05/11 09:02:51;;;;;;;20.53;13.37;;;;;;;14.34;100.00;98752.41;7360215;19;20383;-54
2022/05/11 09:05:26;;;;;;;15.43;9.27;;;;;;;14.51;100.00;98747.16;7393882;19;20484;-56
2022/05/11 09:07:56;;;;;;;43.40;21.63;;;;;;;14.38;100.00;98767.09;7387517;19;20419;-57
2022/05/11 09:10:30;;;;;;;19.20;10.27;;;;;;;14.43;100.00;98771.41;7396800;19;20387;-58
2022/05/11 09:13:02;;;;;;;14.23;9.10;;;;;;;14.47;100.00;98768.78;7367330;19;20423;-59
2022/05/11 09:16:05;;;;;;;20.30;9.33;;;;;;;14.36;100.00;98785.25;7393214;19;20486;-58
2022/05/11 09:18:42;;;;;;;33.67;18.43;;;;;;;14.38;100.00;98793.03;7369204;19;20391;-60
2022/05/11 09:21:32;;;;;;;27.43;13.93;;;;;;;14.63;100.00;98788.59;7400483;19;20407;-60
2022/05/11 09:24:08;;;;;;;30.70;15.60;;;;;;;14.68;100.00;98802.38;7351257;19;20411;-57
2022/05/11 09:26:41;;;;;;;21.23;12.43;;;;;;;14.93;100.00;98801.41;7394326;19;20436;-57
2022/05/11 09:29:21;;;;;;;18.60;12.07;;;;;;;15.12;100.00;98813.38;7383403;19;20404;-57
2022/05/11 09:31:53;;;;;;;18.10;10.90;;;;;;;15.29;100.00;98820.16;7395574;19;20381;-60
2022/05/11 09:34:33;;;;;;;24.80;13.53;;;;;;;15.16;100.00;98844.50;7387916;19;20412;-58
2022/05/11 09:37:04;;;;;;;14.03;10.03;;;;;;;15.12;100.00;98854.06;7397454;19;20775;-60
2022/05/11 09:39:35;;;;;;;34.80;17.30;;;;;;;15.30;100.00;98854.78;7362920;19;20816;-59
2022/05/11 09:42:29;;;;;;;22.80;11.53;;;;;;;15.12;100.00;98870.50;7395994;19;20935;-58
2022/05/11 09:44:59;;;;;;;28.17;14.43;;;;;;;15.16;100.00;98870.47;7367925;19;20438;-58
2022/05/11 09:47:33;;;;;;;32.57;16.70;;;;;;;15.03;100.00;98895.69;7395380;19;20393;-56
2022/05/11 09:50:22;;;;;;;17.30;11.17;;;;;;;15.01;100.00;98897.44;7394042;19;20493;-59
2022/05/11 09:52:52;;;;;;;21.07;10.67;;;;;;;14.89;100.00;98929.50;7385091;19;20401;-58
2022/05/11 09:55:28;;;;;;;11.60;7.97;;;;;;;15.04;100.00;98928.56;7391595;19;20415;-59
2022/05/11 09:58:00;;;;;;;14.63;7.97;;;;;;;15.22;100.00;98936.25;7387220;19;20934;-57
2022/05/11 10:00:36;;;;;;;13.10;8.20;;;;;;;15.06;100.00;98921.59;7393904;19;20389;-59
2022/05/11 10:03:10;;;;;;;17.50;8.37;;;;;;;15.04;100.00;98915.56;7385701;19;20774;-59
2022/05/11 10:05:44;;;;;;;14.73;8.93;;;;;;;15.28;100.00;98918.91;7391165;19;20410;-58
2022/05/11 10:08:20;;;;;;;16.87;9.50;;;;;;;15.31;100.00;98919.72;7385963;19;20415;-58
2022/05/11 10:10:52;;;;;;;14.37;8.70;;;;;;;15.68;100.00;98922.94;7394220;19;20387;-59
2022/05/11 10:13:29;;;;;;;12.53;6.70;;;;;;;15.53;100.00;98917.84;7384386;19;20523;-58
2022/05/11 10:24:35;;;;;;;10.80;7.33;;;;;;;16.10;100.00;98922.56;7385974;19;20969;-57
2022/05/11 10:27:10;;;;;;;10.90;7.97;;;;;;;16.22;100.00;98940.66;7394254;19;20397;-57
2022/05/11 10:29:50;;;;;;;11.37;7.30;;;;;;;16.30;100.00;98946.63;7387690;19;20410;-59
2022/05/11 10:32:22;;;;;;;9.57;5.70;;;;;;;16.35;100.00;98959.59;7393495;19;20393;-56
2022/05/11 10:34:57;;;;;;;14.90;6.13;;;;;;;16.42;100.00;98983.81;7385160;19;20421;-55
2022/05/11 10:37:36;;;;;;;9.60;6.13;;;;;;;16.72;100.00;99002.59;7393298;19;20730;-59
2022/05/11 10:40:15;;;;;;;8.77;5.27;;;;;;;16.96;100.00;99024.88;7396577;19;20453;-55
2022/05/11 10:42:49;;;;;;;10.13;5.83;;;;;;;17.28;100.00;99043.63;7388308;19;20483;-57
2022/05/11 10:45:23;;;;;;;16.07;5.90;;;;;;;17.58;100.00;99054.50;7392168;19;20435;-57
2022/05/11 10:48:13;;;;;;;9.43;5.60;;;;;;;17.55;100.00;99067.59;7386605;19;20762;-57
2022/05/11 10:50:50;;;;;;;9.13;4.23;;;;;;;17.66;100.00;99096.13;7393694;19;20389;-55
2022/05/11 10:53:35;;;;;;;9.80;4.40;;;;;;;18.08;100.00;99138.16;7386297;19;20416;-56
2022/05/11 10:56:25;;;;;;;12.03;4.90;;;;;;;18.54;100.00;99442.97;7393622;19;20479;-54
2022/05/11 10:59:22;;;;;;;6.00;3.40;;;;;;;18.24;100.00;99567.75;7393928;19;20401;-57
2022/05/11 11:02:02;;;;;;;8.57;4.57;;;;;;;18.49;100.00;99634.53;7400446;19;20417;-60
2022/05/11 11:04:52;;;;;;;8.33;4.20;;;;;;;18.11;100.00;99659.19;7392256;19;20420;-56
2022/05/11 11:07:26;;;;;;;14.53;5.30;;;;;;;18.58;100.00;99644.03;7400839;19;20920;-56
2022/05/11 11:10:19;;;;;;;12.27;5.53;;;;;;;18.52;100.00;99644.09;7391879;19;20428;-51
2022/05/11 11:13:11;;;;;;;7.43;4.00;;;;;;;18.20;100.00;99668.72;7394213;19;20383;-56
2022/05/11 11:15:44;;;;;;;13.60;7.00;;;;;;;18.27;100.00;99630.34;7402307;19;20426;-51
2022/05/11 11:18:15;;;;;;;7.43;3.53;;;;;;;18.04;100.00;99641.78;7392540;19;20424;-53
2022/05/11 11:20:47;;;;;;;10.53;5.20;;;;;;;17.89;100.00;99614.06;7400567;19;20401;-53
2022/05/11 11:23:32;;;;;;;9.03;6.07;;;;;;;17.99;100.00;99618.34;7394481;19;20457;-55
2022/05/11 11:26:07;;;;;;;9.50;4.80;;;;;;;17.89;100.00;99627.97;7398655;19;20480;-54
2022/05/11 11:29:06;;;;;;;7.73;4.00;;;;;;;17.86;100.00;99659.31;7394287;19;20431;-57
2022/05/11 11:32:03;;;;;;;10.83;6.00;;;;;;;18.08;100.00;99649.63;7400194;19;20401;-59
2022/05/11 11:34:34;;;;;;;11.03;6.13;;;;;;;18.06;100.00;99676.63;7389984;19;20418;-60
2022/05/11 11:37:34;;;;;;;13.40;6.23;;;;;;;18.64;100.00;99624.81;7400718;19;20806;-56
2022/05/11 11:40:21;;;;;;;8.87;5.57;;;;;;;18.55;100.00;99664.94;7396550;19;20940;-55
2022/05/11 11:42:54;;;;;;;10.10;6.27;;;;;;;18.53;100.00;99692.81;7393178;19;20398;-58
2022/05/11 11:46:04;;;;;;;12.53;6.67;;;;;;;18.91;100.00;99659.38;7397722;19;20431;-57
2022/05/11 11:48:36;;;;;;;12.47;6.80;;;;;;;19.22;100.00;99673.91;7390786;19;20427;-57
2022/05/11 11:51:08;;;;;;;12.80;6.50;;;;;;;19.15;100.00;99712.31;7399839;19;20482;-59
2022/05/11 11:53:43;;;;;;;15.00;5.80;;;;;;;19.34;100.00;99718.22;7390222;19;20415;-58
2022/05/11 11:56:48;;;;;;;9.60;5.30;;;;;;;19.18;100.00;99769.81;7397603;19;20429;-58
2022/05/11 11:59:38;;;;;;;13.60;5.77;;;;;;;19.24;100.00;99788.06;7393308;19;20707;-57
2022/05/11 12:02:16;;;;;;;11.83;5.93;;;;;;;19.44;100.00;99805.28;7399200;19;20376;-55
2022/05/11 12:04:49;;;;;;;8.13;4.97;;;;;;;19.60;100.00;99873.13;7390016;19;20405;-57
2022/05/11 12:15:39;;;;;;;12.80;4.80;;;;;;;19.45;100.00;100002.31;7395856;19;20423;-56
2022/05/11 12:18:24;;;;;;;9.50;4.87;;;;;;;18.97;100.00;100012.13;7390493;19;20952;-57
2022/05/11 12:20:54;;;;;;;10.50;6.10;;;;;;;19.49;100.00;100010.09;7398944;19;20394;-55